Time;durP1;ratioP1;P1;durP2;ratioP2;P2;SDS_P1;SDS_P2;PMS_P1;PMS_P2;Temp;Humidity;BMP_temperature;BMP_pressure;BME280_temperature;BME280_humidity;BME280_pressure;Samples;Min_cycle;Max_cycle;Signal;HPM_P1;HPM_P2
2022/07/08 00:00:14;;;;;;;1.50;1.40;;;16.20;99.90;;;;;;4965604;28;20469;-82
2022/07/08 00:02:40;;;;;;;3.50;2.67;;;16.20;99.90;;;;;;4971106;28;20473;-83
2022/07/08 00:05:08;;;;;;;2.80;2.60;;;16.20;99.90;;;;;;4991784;28;20428;-83
2022/07/08 00:07:35;;;;;;;3.33;2.97;;;16.20;99.90;;;;;;4976177;28;20454;-83
2022/07/08 00:10:02;;;;;;;3.03;2.50;;;16.30;99.90;;;;;;4962755;28;20487;-83
2022/07/08 00:12:28;;;;;;;3.37;2.70;;;16.20;99.90;;;;;;4966846;28;20582;-82
2022/07/08 00:14:56;;;;;;;2.70;2.37;;;16.10;99.90;;;;;;4988012;28;20456;-83
2022/07/08 00:17:23;;;;;;;4.90;2.53;;;16.00;99.90;;;;;;4983598;28;20456;-84
2022/07/08 00:19:50;;;;;;;2.77;2.40;;;16.00;99.90;;;;;;4966475;28;20469;-84
2022/07/08 00:22:17;;;;;;;6.67;3.23;;;15.90;99.90;;;;;;4966690;28;20480;-83
2022/07/08 00:24:43;;;;;;;2.70;2.50;;;15.80;99.90;;;;;;4986864;28;20467;-83
2022/07/08 00:27:10;;;;;;;3.10;2.40;;;15.70;99.90;;;;;;4981335;28;20463;-84
2022/07/08 00:29:37;;;;;;;4.10;2.60;;;15.70;99.90;;;;;;4966721;28;20452;-83
2022/07/08 00:32:05;;;;;;;5.90;2.60;;;15.60;99.90;;;;;;4969971;28;20491;-83
2022/07/08 00:34:32;;;;;;;3.10;2.80;;;15.50;99.90;;;;;;4987204;28;20456;-83
2022/07/08 00:36:59;;;;;;;3.20;2.90;;;15.50;99.90;;;;;;4984560;28;20452;-82
2022/07/08 00:39:26;;;;;;;2.50;2.30;;;15.50;99.90;;;;;;4967622;28;20456;-83
2022/07/08 00:41:53;;;;;;;6.50;3.33;;;15.40;99.90;;;;;;4967588;28;20477;-83
2022/07/08 00:44:19;;;;;;;2.87;2.47;;;15.30;99.90;;;;;;4987142;28;20492;-83
2022/07/08 00:46:46;;;;;;;2.90;2.47;;;15.30;99.90;;;;;;4986416;28;20464;-84
2022/07/08 00:49:14;;;;;;;5.07;2.73;;;15.30;99.90;;;;;;4985873;28;20456;-83
2022/07/08 00:51:42;;;;;;;3.10;2.80;;;15.20;99.90;;;;;;4983836;28;20480;-83
2022/07/08 00:54:13;;;;;;;6.00;3.23;;;15.10;99.90;;;;;;4967830;28;20496;-83
2022/07/08 00:56:40;;;;;;;5.63;3.10;;;15.00;99.90;;;;;;4975107;28;20459;-83
2022/07/08 00:59:08;;;;;;;3.40;2.87;;;14.90;99.90;;;;;;4985001;28;20460;-83
2022/07/08 01:01:35;;;;;;;7.60;4.37;;;14.90;99.90;;;;;;4983911;28;20481;-83
2022/07/08 01:04:02;;;;;;;7.70;3.60;;;14.80;99.90;;;;;;4965211;28;20522;-82
2022/07/08 01:06:31;;;;;;;4.07;3.63;;;14.80;99.90;;;;;;4965811;28;20454;-83
2022/07/08 01:08:58;;;;;;;4.17;3.77;;;14.70;99.90;;;;;;4985544;28;20862;-82
2022/07/08 01:11:25;;;;;;;4.30;4.00;;;14.60;99.90;;;;;;4984592;28;20477;-84
2022/07/08 01:13:52;;;;;;;7.03;3.90;;;14.60;99.90;;;;;;4984405;28;20484;-83
2022/07/08 01:16:19;;;;;;;4.73;4.03;;;14.50;99.90;;;;;;4984763;28;20814;-83
2022/07/08 01:18:46;;;;;;;4.07;3.70;;;14.50;99.90;;;;;;4967760;28;20954;-83
2022/07/08 01:21:14;;;;;;;5.53;4.53;;;14.40;99.90;;;;;;4967669;28;20467;-83
2022/07/08 01:23:41;;;;;;;6.43;4.23;;;14.40;99.90;;;;;;4977386;28;20464;-83
2022/07/08 01:26:11;;;;;;;5.00;4.27;;;14.40;99.90;;;;;;4967089;28;20452;-82
2022/07/08 01:28:39;;;;;;;5.37;4.97;;;14.30;99.90;;;;;;4982854;28;20456;-82
2022/07/08 01:31:06;;;;;;;5.37;4.80;;;14.20;99.90;;;;;;4986510;28;20480;-83
2022/07/08 01:33:32;;;;;;;4.60;4.20;;;14.20;99.90;;;;;;4971323;28;20489;-83
2022/07/08 01:35:59;;;;;;;4.00;3.53;;;14.10;99.90;;;;;;4967874;28;20835;-83
2022/07/08 01:38:27;;;;;;;6.80;4.47;;;14.00;99.90;;;;;;4967434;28;20457;-84
2022/07/08 01:44:16;;;;;;;5.17;4.67;;;13.80;99.90;;;;;;4984927;28;20411;-83
2022/07/08 01:46:42;;;;;;;3.90;3.60;;;13.70;99.90;;;;;;4975055;28;20472;-83
2022/07/08 01:49:13;;;;;;;4.67;3.27;;;13.70;99.90;;;;;;4964815;28;20859;-83
2022/07/08 01:51:39;;;;;;;5.03;3.90;;;13.60;99.90;;;;;;4982508;28;20945;-83
2022/07/08 01:54:07;;;;;;;5.30;4.80;;;13.60;99.90;;;;;;4985276;28;20559;-83
2022/07/08 01:56:34;;;;;;;5.00;4.10;;;13.50;99.90;;;;;;4968982;28;20456;-83
2022/07/08 01:59:01;;;;;;;9.57;4.07;;;13.50;99.90;;;;;;4966845;28;20542;-83
2022/07/08 02:01:27;;;;;;;4.40;4.00;;;13.40;99.90;;;;;;4967176;28;20473;-83
2022/07/08 02:03:54;;;;;;;4.10;3.77;;;13.40;99.90;;;;;;4966559;28;20457;-83
2022/07/08 02:06:21;;;;;;;8.97;3.87;;;13.30;99.90;;;;;;4978845;28;20455;-82
2022/07/08 02:08:49;;;;;;;4.00;3.70;;;13.20;99.90;;;;;;4986259;28;20543;-82
2022/07/08 02:14:00;;;;;;;3.80;3.50;;;13.20;99.90;;;;;;4945213;28;20485;-83
2022/07/08 02:16:27;;;;;;;6.20;4.10;;;13.10;99.90;;;;;;4983596;28;20821;-82
2022/07/08 02:18:53;;;;;;;4.10;3.70;;;13.10;99.90;;;;;;4984849;28;20448;-83
2022/07/08 02:21:20;;;;;;;6.30;5.70;;;13.00;99.90;;;;;;4968652;28;20503;-83
2022/07/08 02:23:47;;;;;;;3.83;3.53;;;13.00;99.90;;;;;;4966353;28;20448;-83
2022/07/08 02:26:13;;;;;;;4.20;3.23;;;13.00;99.90;;;;;;4965501;28;20464;-82
2022/07/08 02:28:41;;;;;;;5.07;4.57;;;12.90;99.90;;;;;;4965318;28;20452;-82
2022/07/08 02:31:08;;;;;;;5.90;3.40;;;12.80;99.90;;;;;;4979036;28;20499;-82
2022/07/08 02:33:35;;;;;;;5.20;3.73;;;12.80;99.90;;;;;;4984835;28;20560;-83
2022/07/08 02:36:02;;;;;;;4.40;4.00;;;12.80;99.90;;;;;;4988367;28;20448;-81
2022/07/08 02:38:28;;;;;;;6.20;4.20;;;12.80;99.90;;;;;;4985813;28;20466;-82
2022/07/08 02:40:55;;;;;;;5.20;3.93;;;12.70;99.90;;;;;;4972555;28;20487;-83
2022/07/08 02:43:22;;;;;;;9.33;4.90;;;12.70;99.90;;;;;;4964514;28;20440;-81
2022/07/08 02:45:51;;;;;;;7.50;3.60;;;12.70;99.90;;;;;;4973021;28;20459;-82
2022/07/08 02:48:17;;;;;;;7.43;4.70;;;12.70;99.90;;;;;;4983877;28;20451;-83
2022/07/08 02:50:44;;;;;;;6.60;6.10;;;12.70;99.90;;;;;;4970568;28;20449;-82
2022/07/08 02:53:11;;;;;;;4.13;3.83;;;12.70;99.90;;;;;;4964490;28;20503;-83
2022/07/08 02:55:38;;;;;;;5.63;5.10;;;12.60;99.90;;;;;;4975618;28;20482;-81
2022/07/08 02:58:05;;;;;;;4.13;3.83;;;12.60;99.90;;;;;;4984210;28;20968;-83
2022/07/08 03:00:33;;;;;;;7.63;3.67;;;12.60;99.90;;;;;;4977392;28;20452;-83
2022/07/08 03:03:01;;;;;;;5.47;3.90;;;12.60;99.90;;;;;;4965440;28;20476;-83
2022/07/08 03:05:27;;;;;;;7.30;3.80;;;12.60;99.90;;;;;;4965359;28;20463;-82
2022/07/08 03:07:54;;;;;;;6.07;4.70;;;12.60;99.90;;;;;;4965425;28;20541;-83
2022/07/08 03:10:21;;;;;;;4.07;3.63;;;12.60;99.90;;;;;;4976272;28;20965;-83
2022/07/08 03:12:48;;;;;;;9.43;3.77;;;12.60;99.90;;;;;;4983716;28;20521;-83
2022/07/08 03:15:14;;;;;;;5.43;4.27;;;12.70;99.90;;;;;;4974432;28;20466;-82
2022/07/08 03:17:41;;;;;;;5.50;3.70;;;12.70;99.90;;;;;;4964564;28;20480;-82
2022/07/08 03:20:10;;;;;;;6.83;3.97;;;12.70;99.90;;;;;;4973478;28;20462;-83
2022/07/08 03:22:36;;;;;;;4.20;3.20;;;12.60;99.90;;;;;;4984280;28;20474;-82
2022/07/08 03:25:04;;;;;;;8.27;4.50;;;12.70;99.90;;;;;;4983632;28;20451;-82
2022/07/08 03:27:30;;;;;;;8.13;5.33;;;12.60;99.90;;;;;;4990977;28;20455;-82
2022/07/08 03:29:57;;;;;;;5.93;3.87;;;12.70;99.90;;;;;;4981387;28;20459;-82
2022/07/08 03:32:25;;;;;;;7.53;3.50;;;12.60;99.90;;;;;;4980372;28;20475;-83
2022/07/08 03:34:52;;;;;;;12.60;4.40;;;12.60;99.90;;;;;;4976268;28;20461;-83
2022/07/08 03:37:20;;;;;;;5.60;4.10;;;12.60;99.90;;;;;;4961639;28;20461;-81
2022/07/08 03:39:48;;;;;;;4.10;3.80;;;12.60;99.90;;;;;;4970156;28;20460;-81
2022/07/08 06:30:29;;;;;;;6.00;3.90;;;14.60;99.90;;;;;;4960433;28;20943;-88
2022/07/08 06:33:02;;;;;;;3.13;2.93;;;14.80;99.90;;;;;;4963604;28;20887;-88
2022/07/08 06:35:30;;;;;;;6.60;3.43;;;15.00;99.90;;;;;;4963499;28;20536;-87
2022/07/08 06:38:02;;;;;;;4.37;2.67;;;15.10;99.90;;;;;;4961884;28;20468;-85
2022/07/08 06:40:35;;;;;;;6.03;3.03;;;15.20;99.90;;;;;;4965043;28;20454;-88
2022/07/08 06:43:19;;;;;;;3.47;2.70;;;15.30;99.90;;;;;;4964630;28;20525;-88
2022/07/08 06:45:48;;;;;;;2.60;2.40;;;15.30;99.90;;;;;;4961929;28;20796;-87
2022/07/08 06:48:26;;;;;;;;;;;;;;;;;;;;;
2022/07/08 06:50:53;;;;;;;9.40;2.67;;;15.40;99.90;;;;;;4960406;28;20453;-88
2022/07/08 06:53:26;;;;;;;2.73;2.43;;;15.30;99.90;;;;;;4954024;29;20536;-89
2022/07/08 06:55:53;;;;;;;4.20;2.13;;;15.40;99.90;;;;;;4957083;29;20453;-87
2022/07/08 06:58:21;;;;;;;2.70;2.50;;;15.50;99.80;;;;;;4958002;29;20471;-86
2022/07/08 07:00:48;;;;;;;3.83;2.77;;;15.70;99.90;;;;;;4961441;29;20454;-85
2022/07/08 07:03:15;;;;;;;5.57;2.90;;;15.70;98.80;;;;;;4961333;29;20479;-86
2022/07/08 07:05:41;;;;;;;2.50;2.33;;;15.80;98.60;;;;;;4960447;29;20979;-86
2022/07/08 07:08:11;;;;;;;4.90;3.83;;;16.00;98.80;;;;;;4958669;29;20459;-85
2022/07/08 07:10:38;;;;;;;3.70;2.17;;;16.20;98.40;;;;;;4963266;28;20991;-82
2022/07/08 08:13:54;;;;;;;3.90;2.50;;;18.40;90.40;;;;;;4760156;30;20536;-85
2022/07/08 08:16:21;;;;;;;3.27;2.37;;;18.00;88.80;;;;;;4822732;29;20477;-83
2022/07/08 08:18:48;;;;;;;5.20;2.30;;;18.20;89.70;;;;;;4834698;29;20469;-83
2022/07/08 08:21:14;;;;;;;2.23;1.67;;;18.40;90.00;;;;;;4930615;28;20442;-81
2022/07/08 08:26:49;;;;;;;3.07;2.00;;;18.80;89.50;;;;;;4968995;28;20451;-82
2022/07/08 08:29:23;;;;;;;3.87;1.70;;;18.90;88.40;;;;;;4977881;28;20447;-83
2022/07/08 08:31:53;;;;;;;6.17;2.00;;;19.00;88.10;;;;;;4969728;28;20519;-84
2022/07/08 08:34:21;;;;;;;2.80;2.10;;;18.70;87.50;;;;;;4947447;28;20491;-83
2022/07/08 08:36:47;;;;;;;2.47;1.97;;;18.70;87.20;;;;;;4966529;29;20451;-84
2022/07/08 08:39:26;;;;;;;5.63;2.60;;;18.50;86.80;;;;;;4977328;29;20441;-83
2022/07/08 08:42:19;;;;;;;3.63;1.90;;;18.50;88.00;;;;;;4978962;29;20476;-82
2022/07/08 08:44:58;;;;;;;3.80;2.30;;;18.40;88.60;;;;;;4977145;28;20480;-82
2022/07/08 08:47:29;;;;;;;3.93;2.10;;;18.20;87.50;;;;;;4978137;29;20467;-81
2022/07/08 08:57:24;;;;;;;1.90;1.73;;;17.60;89.00;;;;;;4900322;29;20514;-85
2022/07/08 09:18:02;;;;;;;2.20;2.00;;;17.00;89.20;;;;;;4695311;30;20453;-84
2022/07/08 09:24:16;;;;;;;3.20;2.00;;;17.50;91.10;;;;;;4773765;30;20491;-85
2022/07/08 09:26:43;;;;;;;2.17;1.70;;;17.70;89.10;;;;;;4795486;29;20554;-83
2022/07/08 09:29:11;;;;;;;1.90;1.60;;;17.80;89.50;;;;;;4902689;28;20453;-84
2022/07/08 09:31:39;;;;;;;2.30;1.87;;;18.10;90.10;;;;;;4973264;29;20480;-82
2022/07/08 09:41:28;;;;;;;3.27;2.00;;;18.30;86.60;;;;;;4938825;28;20459;-85
2022/07/08 09:44:07;;;;;;;2.27;1.50;;;18.20;85.70;;;;;;4961570;28;20459;-85
2022/07/08 09:56:57;;;;;;;2.07;1.60;;;18.80;84.10;;;;;;4899798;29;20538;-83
2022/07/08 09:59:32;;;;;;;4.07;1.70;;;18.70;84.30;;;;;;4902210;29;20891;-84
2022/07/08 10:02:00;;;;;;;2.63;2.00;;;19.00;86.90;;;;;;4897698;29;20485;-84
2022/07/08 10:04:43;;;;;;;2.70;1.80;;;19.20;85.20;;;;;;4941410;28;20444;-84
2022/07/08 10:37:13;;;;;;;1.80;1.70;;;19.40;82.30;;;;;;4840516;29;20537;-84
2022/07/08 10:39:41;;;;;;;2.10;2.00;;;19.50;81.40;;;;;;4926022;28;20498;-83
2022/07/08 10:42:09;;;;;;;3.03;1.90;;;19.50;82.20;;;;;;4960727;29;20476;-84
2022/07/08 10:45:26;;;;;;;2.00;1.73;;;19.60;81.20;;;;;;4960735;29;20555;-83
2022/07/08 10:48:07;;;;;;;2.33;1.93;;;19.60;80.20;;;;;;4960735;29;20461;-84
2022/07/08 10:50:36;;;;;;;2.23;1.77;;;19.70;80.70;;;;;;4962455;28;20457;-84
2022/07/08 10:53:07;;;;;;;2.07;1.97;;;19.70;80.60;;;;;;4962801;29;20473;-84
2022/07/08 10:59:23;;;;;;;3.57;2.50;;;19.90;80.60;;;;;;4970013;28;20461;-84
2022/07/08 11:02:15;;;;;;;3.70;2.07;;;20.10;80.50;;;;;;4959214;29;20484;-84
2022/07/08 11:04:53;;;;;;;2.00;1.90;;;20.30;79.20;;;;;;4960115;28;20458;-83
2022/07/08 11:16:53;;;;;;;1.80;1.70;;;21.10;75.20;;;;;;5232956;23;20530;-84
2022/07/08 11:43:24;;;;;;;1.83;1.37;;;23.60;64.80;;;;;;4976982;28;20861;-82
2022/07/08 11:45:51;;;;;;;2.97;1.67;;;23.50;63.90;;;;;;4978743;28;20491;-82
2022/07/08 11:48:18;;;;;;;2.40;2.20;;;23.80;62.00;;;;;;4977896;28;20483;-82
2022/07/08 11:50:54;;;;;;;2.33;1.30;;;23.70;62.10;;;;;;4978924;28;20470;-84
2022/07/08 11:53:22;;;;;;;1.47;1.30;;;23.90;62.50;;;;;;4981615;28;20469;-83
2022/07/08 11:56:18;;;;;;;2.57;1.67;;;24.10;61.90;;;;;;4979968;28;20462;-83
2022/07/08 11:59:06;;;;;;;2.20;1.60;;;24.40;64.50;;;;;;4981859;28;20507;-84
2022/07/08 12:01:46;;;;;;;2.07;1.70;;;25.20;66.00;;;;;;4980613;28;21003;-86
2022/07/08 12:05:02;;;;;;;2.33;1.30;;;25.80;61.80;;;;;;4980324;28;20493;-85
2022/07/08 12:31:46;;;;;;;3.47;1.60;;;25.70;56.70;;;;;;4902389;29;20459;-84
2022/07/08 12:42:05;;;;;;;1.67;1.57;;;26.80;52.30;;;;;;4894549;29;20873;-84
2022/07/08 12:51:20;;;;;;;1.90;1.10;;;29.00;50.40;;;;;;4839758;29;20466;-85
2022/07/08 12:53:48;;;;;;;11.80;3.60;;;28.70;48.90;;;;;;4901184;28;20641;-86
2022/07/08 12:56:17;;;;;;;2.13;1.30;;;28.10;48.70;;;;;;4975275;28;20530;-87
2022/07/08 12:58:44;;;;;;;2.47;1.00;;;27.90;49.30;;;;;;4975775;28;20509;-86
2022/07/08 14:44:43;;;;;;;2.80;1.93;;;32.00;40.00;;;;;;4814953;29;20504;-88
2022/07/08 14:47:10;;;;;;;2.10;1.90;;;32.30;39.60;;;;;;4868735;29;20467;-87
2022/07/08 14:49:37;;;;;;;2.00;1.90;;;32.60;39.50;;;;;;4932760;29;20512;-89
2022/07/08 14:52:15;;;;;;;2.00;1.30;;;32.00;38.30;;;;;;4951319;28;20867;-88
2022/07/08 14:54:42;;;;;;;1.57;1.47;;;31.50;38.80;;;;;;4954902;28;20456;-90
2022/07/08 15:00:19;;;;;;;4.10;1.90;;;32.50;39.10;;;;;;4953851;28;20456;-88
2022/07/08 15:02:46;;;;;;;2.20;2.00;;;32.80;37.00;;;;;;4956551;29;21212;-87
2022/07/08 15:05:17;;;;;;;3.07;1.53;;;33.00;38.40;;;;;;4970313;28;20508;-87
2022/07/08 15:39:52;;;;;;;2.13;1.57;;;32.70;36.80;;;;;;852890;26;20753;-88
2022/07/08 15:52:03;;;;;;;3.17;1.80;;;31.70;37.60;;;;;;4912756;29;20558;-86
2022/07/08 15:54:34;;;;;;;5.53;1.97;;;31.50;39.50;;;;;;4913671;29;20469;-87
2022/07/08 15:57:03;;;;;;;1.80;1.40;;;31.40;39.00;;;;;;4920212;29;20452;-84
2022/07/08 16:12:31;;;;;;;2.20;2.10;;;31.20;37.60;;;;;;4852471;29;20467;-84
2022/07/08 16:15:44;;;;;;;2.70;1.40;;;31.70;36.60;;;;;;4890610;29;20459;-86
2022/07/08 16:18:34;;;;;;;2.07;1.80;;;32.20;35.90;;;;;;4921668;28;20536;-86
2022/07/08 16:21:08;;;;;;;4.57;1.63;;;31.80;35.80;;;;;;4977517;28;20446;-85
2022/07/08 16:23:36;;;;;;;1.43;1.20;;;31.40;36.80;;;;;;4976530;28;20458;-85
2022/07/08 16:26:03;;;;;;;2.00;1.67;;;32.30;37.00;;;;;;4977452;28;20564;-84
2022/07/08 16:28:32;;;;;;;1.73;1.53;;;32.70;36.00;;;;;;4981568;28;20911;-84
2022/07/08 16:30:58;;;;;;;6.10;1.70;;;32.40;36.00;;;;;;4981938;28;20455;-83
2022/07/08 16:33:25;;;;;;;2.07;1.90;;;32.20;36.20;;;;;;4982478;28;20467;-84
2022/07/08 16:35:52;;;;;;;2.37;1.80;;;32.40;35.70;;;;;;4981730;28;20474;-84
2022/07/08 16:38:19;;;;;;;2.90;1.60;;;31.80;37.20;;;;;;4982139;28;20478;-84
2022/07/08 16:40:46;;;;;;;1.90;1.57;;;32.20;36.60;;;;;;4980130;28;20467;-84
2022/07/08 16:43:12;;;;;;;1.77;1.50;;;32.00;36.00;;;;;;4979797;28;20495;-84
2022/07/08 16:45:40;;;;;;;1.73;1.63;;;31.20;36.00;;;;;;4979639;28;20497;-83
2022/07/08 16:48:12;;;;;;;1.63;1.53;;;30.70;36.20;;;;;;4988798;28;20467;-86
2022/07/08 16:51:07;;;;;;;3.00;1.50;;;30.50;36.80;;;;;;4980340;28;20459;-86
2022/07/08 16:53:34;;;;;;;6.33;1.90;;;30.30;38.20;;;;;;4969881;28;20466;-84
2022/07/08 16:56:01;;;;;;;1.50;1.10;;;29.90;38.40;;;;;;4977739;28;20554;-88
2022/07/08 16:58:28;;;;;;;2.20;1.60;;;29.90;39.10;;;;;;4982436;28;20467;-85
2022/07/08 17:01:11;;;;;;;1.80;1.50;;;30.10;38.60;;;;;;4987061;28;20478;-86
2022/07/08 17:10:46;;;;;;;265.83;245.43;;;29.70;39.70;;;;;;4975630;28;20442;-85
2022/07/08 17:13:36;;;;;;;14.33;13.27;;;30.10;39.20;;;;;;4975304;28;20489;-86
2022/07/08 17:16:05;;;;;;;691.63;629.83;;;30.70;38.30;;;;;;4974709;28;20469;-86
2022/07/08 17:18:32;;;;;;;4.23;3.93;;;30.50;38.00;;;;;;4974179;28;20943;-85
2022/07/08 17:21:00;;;;;;;171.07;154.83;;;29.40;38.00;;;;;;4976063;28;20455;-85
2022/07/08 17:23:27;;;;;;;21.93;19.97;;;29.10;40.00;;;;;;4975431;28;20549;-85
2022/07/08 17:25:57;;;;;;;7.73;7.03;;;28.40;40.20;;;;;;4975624;28;20498;-85
2022/07/08 17:28:29;;;;;;;14.07;12.77;;;27.80;41.20;;;;;;4975660;28;20465;-85
2022/07/08 17:31:04;;;;;;;3.90;2.90;;;27.70;41.90;;;;;;4975252;28;20454;-85
2022/07/08 18:41:50;;;;;;;3.57;2.20;;;26.40;44.00;;;;;;6192354;23;20385;-85
2022/07/08 18:44:35;;;;;;;169.90;153.20;;;25.90;45.10;;;;;;6192560;23;20684;-85
2022/07/08 18:47:05;;;;;;;110.10;95.27;;;25.60;46.00;;;;;;6191354;23;20390;-85
2022/07/08 18:49:32;;;;;;;162.10;147.00;;;25.40;46.30;;;;;;6190074;23;20864;-86
2022/07/08 18:52:00;;;;;;;38.70;34.87;;;25.00;46.70;;;;;;6185630;23;20753;-85
2022/07/08 18:54:27;;;;;;;72.07;64.30;;;24.60;47.50;;;;;;6186750;23;20414;-86
2022/07/08 18:56:56;;;;;;;56.83;50.07;;;24.10;48.20;;;;;;6185777;23;20414;-87
2022/07/08 18:59:26;;;;;;;121.43;109.17;;;24.10;48.90;;;;;;6186582;23;20448;-86
2022/07/08 19:01:53;;;;;;;26.10;23.03;;;23.60;49.40;;;;;;6186301;23;20418;-86
2022/07/08 19:04:20;;;;;;;88.40;78.60;;;23.40;50.60;;;;;;6186321;23;20410;-86
2022/07/08 19:06:49;;;;;;;30.90;24.70;;;23.50;50.70;;;;;;6185994;23;20784;-87
2022/07/08 19:09:16;;;;;;;10.00;8.87;;;23.40;50.30;;;;;;6189528;23;20406;-86
2022/07/08 19:11:43;;;;;;;17.80;16.07;;;23.20;50.50;;;;;;6188895;23;20429;-86
2022/07/08 19:14:11;;;;;;;9.40;7.13;;;23.10;51.20;;;;;;6190331;23;20414;-85
2022/07/08 19:16:40;;;;;;;6.57;4.80;;;23.00;51.60;;;;;;6189407;23;20743;-86
2022/07/08 19:19:07;;;;;;;3.13;2.87;;;22.80;51.90;;;;;;6190862;23;20448;-86
2022/07/08 19:21:38;;;;;;;3.50;3.20;;;22.60;52.10;;;;;;6191769;23;20456;-86
2022/07/08 19:24:06;;;;;;;3.43;3.00;;;22.40;53.00;;;;;;6188175;23;20900;-86
2022/07/08 19:26:33;;;;;;;3.90;3.43;;;22.20;53.50;;;;;;6188216;23;20416;-86
2022/07/08 19:28:59;;;;;;;3.33;2.63;;;21.70;54.20;;;;;;6188725;23;20981;-86
2022/07/08 19:31:27;;;;;;;2.40;2.20;;;21.50;55.20;;;;;;6187974;23;20813;-85
2022/07/08 19:33:56;;;;;;;4.00;2.83;;;21.00;55.40;;;;;;6188704;23;20421;-85
2022/07/08 19:36:23;;;;;;;3.77;2.40;;;20.90;56.30;;;;;;6189247;23;20434;-85
2022/07/08 19:38:49;;;;;;;2.63;2.00;;;20.60;56.50;;;;;;6188823;23;20446;-86
2022/07/08 19:41:19;;;;;;;4.10;2.80;;;20.50;56.90;;;;;;6187716;23;20430;-85
2022/07/08 19:43:46;;;;;;;3.40;2.80;;;20.30;57.50;;;;;;6187813;23;20420;-85
2022/07/08 19:46:13;;;;;;;1.93;1.80;;;20.30;58.10;;;;;;6186460;23;20419;-87
2022/07/08 19:48:41;;;;;;;5.60;3.23;;;20.10;58.20;;;;;;6185892;23;20496;-87
2022/07/08 19:51:08;;;;;;;2.60;2.40;;;20.10;58.80;;;;;;6185758;23;20439;-87
2022/07/08 19:53:35;;;;;;;14.40;13.17;;;20.00;59.00;;;;;;6188523;23;20419;-87
2022/07/08 19:56:02;;;;;;;5.10;4.43;;;20.00;59.20;;;;;;6207790;23;20444;-85
2022/07/08 19:58:30;;;;;;;5.60;2.90;;;19.90;59.50;;;;;;6210233;23;20470;-85
2022/07/08 20:00:57;;;;;;;3.20;2.70;;;19.90;59.80;;;;;;6192736;23;20420;-86
2022/07/08 20:03:25;;;;;;;5.00;3.70;;;19.80;59.90;;;;;;6193591;23;20440;-86
2022/07/08 20:05:53;;;;;;;3.30;2.73;;;19.80;60.50;;;;;;6193896;23;20409;-85
2022/07/08 20:08:20;;;;;;;6.03;3.13;;;19.70;60.80;;;;;;6193615;23;20745;-85
2022/07/08 20:10:46;;;;;;;3.40;3.10;;;19.70;61.20;;;;;;6193800;23;20410;-85
2022/07/08 20:13:13;;;;;;;4.00;3.47;;;19.50;61.30;;;;;;6194453;23;20438;-85
2022/07/08 20:15:40;;;;;;;5.37;2.80;;;19.40;61.70;;;;;;6194363;23;20406;-85
2022/07/08 20:18:07;;;;;;;3.30;2.40;;;19.40;62.20;;;;;;6193826;23;20982;-85
2022/07/08 20:20:34;;;;;;;4.43;3.00;;;19.30;62.30;;;;;;6193097;23;20406;-86
2022/07/08 20:23:09;;;;;;;3.87;2.70;;;19.30;62.50;;;;;;6193049;23;20738;-85
2022/07/08 20:25:41;;;;;;;4.17;3.50;;;19.20;62.90;;;;;;6192130;23;20472;-85
2022/07/08 20:28:08;;;;;;;3.47;2.90;;;19.20;63.40;;;;;;6194495;23;20406;-85
2022/07/08 20:30:36;;;;;;;5.37;3.57;;;19.20;63.90;;;;;;6194252;23;20415;-85
2022/07/08 20:33:02;;;;;;;2.93;2.73;;;19.10;64.20;;;;;;6193045;23;20441;-85
2022/07/08 20:35:32;;;;;;;4.23;3.93;;;19.10;64.80;;;;;;6189861;23;20417;-85
2022/07/08 20:38:00;;;;;;;4.27;3.43;;;18.90;66.00;;;;;;6187062;23;20436;-85
2022/07/08 20:40:30;;;;;;;3.23;2.90;;;18.60;67.90;;;;;;6188001;23;20750;-85
2022/07/08 20:42:56;;;;;;;4.27;3.40;;;18.60;67.70;;;;;;6193386;23;20428;-86
2022/07/08 20:45:23;;;;;;;5.30;3.10;;;18.60;68.40;;;;;;6191538;23;20787;-86
2022/07/08 20:47:50;;;;;;;5.03;3.93;;;18.50;68.70;;;;;;6186077;23;20419;-85
2022/07/08 20:50:18;;;;;;;3.43;3.07;;;18.40;69.70;;;;;;6186088;23;20908;-84
2022/07/08 20:52:46;;;;;;;7.73;3.80;;;18.30;70.50;;;;;;6191269;23;20429;-84
2022/07/08 20:55:14;;;;;;;10.50;3.50;;;18.20;71.20;;;;;;6190625;23;20467;-84
2022/07/08 20:57:43;;;;;;;4.30;2.97;;;18.00;71.40;;;;;;6190489;23;20413;-84
2022/07/08 21:00:11;;;;;;;4.13;3.73;;;18.00;71.70;;;;;;6190449;23;20976;-84
2022/07/08 21:02:40;;;;;;;3.73;3.47;;;17.90;72.70;;;;;;6190178;23;20951;-84
2022/07/08 21:05:08;;;;;;;3.80;3.40;;;17.80;73.00;;;;;;6189980;23;20416;-84
2022/07/08 21:07:37;;;;;;;3.13;2.90;;;17.70;73.20;;;;;;6190724;23;20423;-85
2022/07/08 21:10:04;;;;;;;6.13;4.17;;;17.70;73.50;;;;;;6186993;23;20408;-84
2022/07/08 21:12:32;;;;;;;4.57;2.90;;;17.70;73.50;;;;;;6185550;23;20496;-84
2022/07/08 21:15:00;;;;;;;5.53;3.27;;;17.80;73.70;;;;;;6185360;23;20720;-84
2022/07/08 21:17:27;;;;;;;3.73;3.53;;;17.70;76.40;;;;;;6184600;23;20413;-84
2022/07/08 21:19:54;;;;;;;3.60;3.30;;;17.70;76.70;;;;;;6185528;23;20450;-84
2022/07/08 21:22:21;;;;;;;3.40;3.10;;;17.70;77.50;;;;;;6185046;23;20424;-84
2022/07/08 21:24:48;;;;;;;5.90;3.77;;;17.50;78.20;;;;;;6184394;23;20418;-84
2022/07/08 21:27:14;;;;;;;4.63;3.63;;;17.50;78.50;;;;;;6184165;23;20417;-84
2022/07/08 21:29:41;;;;;;;5.10;4.60;;;17.30;78.70;;;;;;6184538;23;20413;-84
2022/07/08 21:32:09;;;;;;;4.30;3.33;;;17.40;79.90;;;;;;6184519;23;20432;-84
2022/07/08 21:34:36;;;;;;;4.43;3.80;;;17.30;80.50;;;;;;6184454;23;20396;-84
2022/07/08 21:37:03;;;;;;;4.33;4.03;;;17.30;81.20;;;;;;6183748;23;20931;-84
2022/07/08 21:39:30;;;;;;;3.23;2.93;;;17.20;81.90;;;;;;6184792;23;20488;-84
2022/07/08 21:41:57;;;;;;;4.90;3.50;;;17.20;82.60;;;;;;6185328;23;20449;-84
2022/07/08 21:44:29;;;;;;;4.00;3.63;;;17.10;83.00;;;;;;6247417;22;20459;-87
2022/07/08 22:00:32;;;;;;;4.80;4.37;;;16.70;87.50;;;;;;6139992;23;20430;-85
2022/07/08 22:02:58;;;;;;;3.93;3.47;;;16.60;88.80;;;;;;6260455;22;20843;-86
2022/07/08 22:05:25;;;;;;;5.00;3.67;;;16.50;90.10;;;;;;6266282;22;20418;-86
2022/07/08 22:07:52;;;;;;;3.80;3.50;;;16.60;88.50;;;;;;6265930;22;20435;-86
2022/07/08 22:10:21;;;;;;;3.90;3.60;;;16.60;87.40;;;;;;6262809;22;20409;-87
2022/07/08 22:12:49;;;;;;;3.70;3.40;;;16.60;87.80;;;;;;6263690;22;20493;-85
2022/07/08 22:15:15;;;;;;;6.23;4.10;;;16.50;88.30;;;;;;6266122;22;20429;-83
2022/07/08 22:17:44;;;;;;;5.57;3.50;;;16.50;88.80;;;;;;6262299;22;20414;-86
2022/07/08 22:20:12;;;;;;;15.63;7.47;;;16.50;88.90;;;;;;6263192;22;20514;-86
2022/07/08 22:22:39;;;;;;;19.13;13.93;;;16.50;89.60;;;;;;6262960;22;20441;-86
2022/07/08 22:25:08;;;;;;;7.37;4.07;;;16.40;90.20;;;;;;6263931;23;20485;-86
2022/07/08 22:27:35;;;;;;;3.27;2.93;;;16.30;90.40;;;;;;6264042;22;20467;-86
2022/07/08 22:30:02;;;;;;;4.03;3.63;;;16.30;90.50;;;;;;6264772;22;20469;-86
2022/07/08 22:32:29;;;;;;;3.97;3.17;;;16.30;90.40;;;;;;6264181;22;20472;-86
2022/07/08 22:34:57;;;;;;;4.13;3.70;;;16.30;90.30;;;;;;6264418;22;20443;-87
2022/07/08 22:37:24;;;;;;;3.77;3.10;;;16.30;90.60;;;;;;6265611;22;20429;-86
2022/07/08 22:39:51;;;;;;;3.37;2.93;;;16.30;90.80;;;;;;6264895;22;20470;-86
2022/07/08 22:42:19;;;;;;;3.40;3.10;;;16.30;91.10;;;;;;6265217;22;20436;-87
2022/07/08 22:44:46;;;;;;;4.90;3.00;;;16.30;91.30;;;;;;6265405;22;20441;-85
2022/07/08 22:47:12;;;;;;;4.43;4.03;;;16.20;91.50;;;;;;6266218;22;20478;-86
2022/07/08 22:49:39;;;;;;;3.60;3.33;;;16.20;91.80;;;;;;6266006;22;20485;-86
2022/07/08 22:52:08;;;;;;;4.73;4.33;;;16.30;92.00;;;;;;6266005;22;20444;-84
2022/07/08 22:54:35;;;;;;;6.50;4.20;;;16.20;92.10;;;;;;6265798;22;20433;-87
2022/07/08 22:57:02;;;;;;;4.13;3.70;;;16.10;92.30;;;;;;6266037;22;20429;-83
2022/07/08 22:59:29;;;;;;;3.93;3.60;;;16.20;92.60;;;;;;6265350;22;20480;-86
2022/07/08 23:01:55;;;;;;;4.13;3.20;;;16.10;92.70;;;;;;6265789;22;20480;-86
2022/07/08 23:04:22;;;;;;;4.77;3.03;;;16.10;92.60;;;;;;6266978;22;20474;-85
2022/07/08 23:06:49;;;;;;;6.80;2.90;;;16.10;92.60;;;;;;6266479;22;20434;-86
2022/07/08 23:09:17;;;;;;;5.90;3.50;;;16.10;92.80;;;;;;6264808;22;20405;-86
2022/07/08 23:11:47;;;;;;;4.90;4.50;;;16.00;92.90;;;;;;6265574;22;20404;-86
2022/07/08 23:14:14;;;;;;;7.83;5.00;;;16.00;93.00;;;;;;6264445;22;20429;-86
2022/07/08 23:16:41;;;;;;;6.43;4.30;;;15.90;93.10;;;;;;6264602;22;20444;-86
2022/07/08 23:19:08;;;;;;;4.37;4.07;;;15.90;93.10;;;;;;6265067;22;20440;-86
2022/07/08 23:21:35;;;;;;;5.77;4.57;;;15.90;93.20;;;;;;6264106;22;20486;-86
2022/07/08 23:24:02;;;;;;;4.70;4.30;;;15.80;93.60;;;;;;6264130;22;20949;-85
2022/07/08 23:26:30;;;;;;;5.93;5.33;;;15.80;93.90;;;;;;6265229;22;20481;-86
2022/07/08 23:28:57;;;;;;;9.20;5.43;;;15.70;94.10;;;;;;6264782;22;20436;-87
2022/07/08 23:31:24;;;;;;;6.80;6.13;;;15.70;94.50;;;;;;6265160;22;20414;-87
2022/07/08 23:33:51;;;;;;;3.97;3.67;;;15.60;94.70;;;;;;6264387;22;20437;-86
2022/07/08 23:36:18;;;;;;;4.40;3.73;;;15.60;94.50;;;;;;6263585;22;20447;-86